Time;durP1;ratioP1;P1;durP2;ratioP2;P2;SDS_P1;SDS_P2;PMS_P1;PMS_P2;Temp;Humidity;BMP_temperature;BMP_pressure;BME280_temperature;BME280_humidity;BME280_pressure;Samples;Min_cycle;Max_cycle;Signal;HPM_P1;HPM_P2
2021/05/13 00:01:30;;;;;;;8.90;7.70;;;12.00;99.90;;;;;;5075531;28;20164;-68
2021/05/13 00:03:55;;;;;;;8.40;7.60;;;11.90;99.90;;;;;;5074547;28;20263;-68
2021/05/13 00:06:21;;;;;;;9.07;8.13;;;11.90;99.90;;;;;;5075167;28;20175;-68
2021/05/13 00:08:55;;;;;;;9.90;7.93;;;11.90;99.90;;;;;;5075073;28;20209;-68
2021/05/13 00:11:26;;;;;;;10.03;7.10;;;11.80;99.90;;;;;;5075032;28;20390;-68
2021/05/13 00:13:51;;;;;;;8.93;6.90;;;11.80;99.90;;;;;;5075001;28;20394;-68
2021/05/13 00:16:17;;;;;;;11.57;7.67;;;11.70;99.90;;;;;;5059907;28;20426;-68
2021/05/13 00:18:42;;;;;;;10.03;8.90;;;11.70;99.90;;;;;;5055586;28;20251;-68
2021/05/13 00:21:08;;;;;;;10.87;8.00;;;11.60;99.90;;;;;;5054805;28;20184;-68
2021/05/13 00:23:33;;;;;;;10.03;7.70;;;11.50;99.90;;;;;;5054826;28;20160;-68
2021/05/13 00:25:59;;;;;;;8.57;7.70;;;11.50;99.90;;;;;;5054854;28;20156;-68
2021/05/13 00:28:25;;;;;;;9.50;8.60;;;11.40;99.90;;;;;;5054323;28;20187;-68
2021/05/13 00:30:51;;;;;;;9.30;8.50;;;11.40;99.90;;;;;;5055204;28;20261;-68
2021/05/13 00:33:16;;;;;;;9.00;8.10;;;11.40;99.90;;;;;;5054628;28;20160;-68
2021/05/13 00:35:42;;;;;;;10.03;8.93;;;11.30;99.90;;;;;;5055084;28;20406;-68
2021/05/13 00:38:08;;;;;;;9.07;8.10;;;11.30;99.90;;;;;;5054594;28;20164;-68
2021/05/13 00:40:34;;;;;;;10.33;8.90;;;11.30;99.90;;;;;;5054310;28;20169;-68
2021/05/13 00:43:01;;;;;;;9.87;8.97;;;11.20;99.90;;;;;;5054308;28;20179;-68
2021/05/13 00:45:28;;;;;;;12.17;8.30;;;11.20;99.90;;;;;;5054860;28;20403;-68
2021/05/13 00:50:39;;;;;;;15.50;9.80;;;11.10;99.90;;;;;;5110742;27;20506;-68
2021/05/13 00:53:09;;;;;;;9.93;8.93;;;11.00;99.90;;;;;;5105738;28;20393;-68
2021/05/13 00:55:35;;;;;;;10.43;9.43;;;11.00;99.90;;;;;;5090231;28;20179;-68
2021/05/13 00:58:02;;;;;;;11.03;9.93;;;11.00;99.90;;;;;;5090260;28;20388;-68
2021/05/13 01:03:06;;;;;;;10.43;9.50;;;10.90;99.90;;;;;;5110767;27;20868;-68
2021/05/13 01:05:33;;;;;;;8.97;8.17;;;10.80;99.90;;;;;;5110679;28;20385;-67
2021/05/13 01:08:01;;;;;;;9.33;8.60;;;10.80;99.90;;;;;;5110655;28;20468;-68
2021/05/13 01:10:27;;;;;;;12.20;11.00;;;10.80;99.90;;;;;;5102637;28;20496;-67
2021/05/13 01:12:54;;;;;;;12.10;9.87;;;10.70;99.90;;;;;;5090238;28;20443;-67
2021/05/13 01:15:33;;;;;;;16.80;10.80;;;10.70;99.90;;;;;;5098077;28;20786;-68
2021/05/13 01:20:35;;;;;;;11.73;10.57;;;10.60;99.90;;;;;;5110802;27;20498;-68
2021/05/13 01:23:02;;;;;;;12.20;11.00;;;10.60;99.90;;;;;;5110704;28;20400;-68
2021/05/13 01:25:28;;;;;;;11.17;10.17;;;10.50;99.90;;;;;;5110592;28;20384;-68
2021/05/13 01:27:57;;;;;;;9.30;8.30;;;10.50;99.90;;;;;;5099138;28;20440;-68
2021/05/13 01:30:23;;;;;;;11.50;10.40;;;10.40;99.90;;;;;;5090641;28;20377;-68
2021/05/13 01:32:48;;;;;;;11.17;10.17;;;10.40;99.90;;;;;;5090186;28;20392;-68
2021/05/13 01:35:14;;;;;;;13.53;10.53;;;10.40;99.90;;;;;;5090127;28;20251;-68
2021/05/13 01:37:39;;;;;;;14.20;11.03;;;10.40;99.90;;;;;;5090004;28;20530;-68
2021/05/13 01:40:05;;;;;;;12.27;11.17;;;10.30;99.90;;;;;;5089940;28;20237;-68
2021/05/13 01:42:31;;;;;;;13.17;12.00;;;10.30;99.90;;;;;;5090365;28;20223;-68
2021/05/13 01:44:57;;;;;;;13.73;11.17;;;10.30;99.90;;;;;;5090811;28;20425;-68
2021/05/13 01:47:22;;;;;;;12.97;11.67;;;10.30;99.90;;;;;;5089794;28;20616;-68
2021/05/13 01:49:49;;;;;;;11.97;10.83;;;10.30;99.90;;;;;;5089768;28;20605;-68
2021/05/13 01:52:15;;;;;;;11.50;10.40;;;10.20;99.90;;;;;;5089853;28;20193;-68
2021/05/13 01:54:40;;;;;;;12.73;11.73;;;10.20;99.90;;;;;;5089682;28;20400;-68
2021/05/13 01:57:07;;;;;;;16.53;12.17;;;10.20;99.90;;;;;;5089816;28;20501;-68
2021/05/13 01:59:33;;;;;;;12.77;11.60;;;10.20;99.90;;;;;;5089741;28;20248;-68
2021/05/13 02:01:59;;;;;;;12.60;11.43;;;10.10;99.90;;;;;;5090101;28;20477;-68
2021/05/13 02:04:26;;;;;;;12.70;11.50;;;10.10;99.90;;;;;;5089566;28;20396;-68
2021/05/13 02:06:52;;;;;;;12.23;11.23;;;10.10;99.90;;;;;;5089413;28;20420;-68
2021/05/13 02:09:17;;;;;;;12.73;11.53;;;10.00;99.90;;;;;;5089461;28;20396;-68
2021/05/13 02:11:43;;;;;;;13.83;12.57;;;10.00;99.90;;;;;;5089788;28;20507;-68
2021/05/13 02:14:09;;;;;;;14.13;12.77;;;10.00;99.90;;;;;;5089706;28;20665;-68
2021/05/13 02:16:34;;;;;;;16.03;12.47;;;10.00;99.90;;;;;;5089390;28;20217;-68
2021/05/13 02:19:00;;;;;;;15.33;12.53;;;9.90;99.90;;;;;;5101438;28;20220;-68
2021/05/13 02:21:25;;;;;;;14.07;12.63;;;9.90;99.90;;;;;;5109909;28;20274;-68
2021/05/13 02:23:51;;;;;;;14.13;12.83;;;9.90;99.90;;;;;;5109653;28;20230;-68
2021/05/13 02:26:20;;;;;;;13.97;12.63;;;9.90;99.90;;;;;;5110040;28;20635;-68
2021/05/13 02:28:46;;;;;;;16.47;12.37;;;9.90;99.90;;;;;;5109920;28;20170;-68
2021/05/13 02:31:11;;;;;;;14.23;12.80;;;9.90;99.90;;;;;;5100239;28;20396;-68
2021/05/13 02:33:37;;;;;;;13.73;12.50;;;9.90;99.90;;;;;;5096531;28;20209;-68
2021/05/13 02:36:03;;;;;;;17.23;14.10;;;9.80;99.90;;;;;;5094991;28;20217;-68
2021/05/13 02:38:29;;;;;;;13.70;12.17;;;9.80;99.90;;;;;;5095718;28;20189;-68
2021/05/13 02:40:54;;;;;;;14.60;13.40;;;9.80;99.90;;;;;;5096220;28;20412;-71
2021/05/13 02:43:21;;;;;;;16.23;13.27;;;9.80;99.90;;;;;;5096019;28;20213;-72
2021/05/13 02:45:46;;;;;;;15.83;14.43;;;9.80;99.90;;;;;;5095650;28;20155;-71
2021/05/13 02:48:12;;;;;;;14.77;13.37;;;9.70;99.90;;;;;;5095597;28;20784;-71
2021/05/13 02:50:37;;;;;;;13.43;12.17;;;9.70;99.90;;;;;;5095577;28;20164;-71
2021/05/13 02:53:03;;;;;;;15.20;13.60;;;9.70;99.90;;;;;;5094603;28;20542;-71
2021/05/13 02:55:29;;;;;;;14.53;13.13;;;9.60;99.90;;;;;;5095648;28;20234;-71
2021/05/13 02:57:55;;;;;;;14.40;13.00;;;9.60;99.90;;;;;;5095733;28;20559;-72
2021/05/13 03:03:00;;;;;;;13.33;12.13;;;9.60;99.90;;;;;;5110935;27;20505;-71
2021/05/13 03:05:27;;;;;;;14.07;12.70;;;9.60;99.90;;;;;;5110826;28;20452;-71
2021/05/13 03:07:55;;;;;;;14.50;13.20;;;9.60;99.90;;;;;;5110719;28;20148;-71
2021/05/13 03:10:26;;;;;;;13.93;12.57;;;9.60;99.90;;;;;;5095540;28;20715;-72
2021/05/13 03:12:54;;;;;;;15.30;13.90;;;9.60;99.90;;;;;;5090671;28;20388;-72
2021/05/13 03:15:20;;;;;;;14.63;13.23;;;9.50;99.90;;;;;;5097646;28;20455;-71
2021/05/13 03:17:48;;;;;;;14.03;12.63;;;9.50;99.90;;;;;;5110773;28;20400;-71
2021/05/13 03:20:16;;;;;;;15.40;13.87;;;9.50;99.90;;;;;;5110376;28;20759;-71
2021/05/13 03:22:42;;;;;;;14.43;13.13;;;9.50;99.90;;;;;;5110349;28;20496;-71
2021/05/13 03:25:09;;;;;;;14.27;12.73;;;9.50;99.90;;;;;;5110451;28;20395;-71
2021/05/13 03:27:45;;;;;;;13.67;12.47;;;9.40;99.90;;;;;;5110082;28;20410;-71
2021/05/13 03:30:12;;;;;;;14.77;13.27;;;9.40;99.90;;;;;;5110330;28;20391;-72
2021/05/13 03:32:38;;;;;;;15.50;14.10;;;9.30;99.90;;;;;;5110332;28;20426;-72
2021/05/13 03:35:05;;;;;;;14.10;12.90;;;9.30;99.90;;;;;;5110203;28;20407;-72
2021/05/13 03:37:30;;;;;;;14.53;13.33;;;9.30;99.90;;;;;;5110210;28;20450;-71
2021/05/13 03:39:56;;;;;;;14.70;13.20;;;9.30;99.90;;;;;;5109972;28;20395;-71
2021/05/13 03:42:22;;;;;;;16.13;14.73;;;9.30;99.90;;;;;;5110437;28;20240;-72
2021/05/13 03:44:48;;;;;;;16.53;15.03;;;9.30;99.90;;;;;;5109444;28;20409;-71
2021/05/13 03:47:14;;;;;;;16.93;15.23;;;9.30;99.90;;;;;;5109748;28;20531;-71
2021/05/13 03:49:40;;;;;;;17.97;16.20;;;9.20;99.90;;;;;;5109886;28;20383;-71
2021/05/13 03:52:05;;;;;;;17.50;15.70;;;9.30;99.90;;;;;;5109942;28;20565;-72
2021/05/13 03:54:31;;;;;;;17.53;16.00;;;9.30;99.90;;;;;;5110212;28;20164;-71
2021/05/13 03:56:57;;;;;;;15.70;14.30;;;9.30;99.90;;;;;;5111084;28;20168;-71
2021/05/13 03:59:23;;;;;;;16.03;14.50;;;9.20;99.90;;;;;;5109652;28;20235;-72
2021/05/13 04:02:05;;;;;;;17.60;15.90;;;9.20;99.90;;;;;;5108728;28;20494;-72
2021/05/13 04:04:31;;;;;;;16.03;14.43;;;9.20;99.90;;;;;;5109836;28;20176;-71
2021/05/13 04:06:57;;;;;;;16.83;15.23;;;9.20;99.90;;;;;;5109782;28;20819;-71
2021/05/13 04:09:23;;;;;;;16.47;15.00;;;9.20;99.90;;;;;;5110258;28;20391;-71
2021/05/13 04:11:49;;;;;;;17.10;15.40;;;9.20;99.90;;;;;;5110435;28;20445;-71
2021/05/13 04:14:15;;;;;;;17.07;15.57;;;9.20;99.90;;;;;;5096677;28;20402;-71
2021/05/13 04:16:42;;;;;;;15.93;14.47;;;9.10;99.90;;;;;;5077794;28;20179;-71
2021/05/13 04:19:08;;;;;;;15.07;13.57;;;9.10;99.90;;;;;;5075657;28;20185;-71
2021/05/13 04:21:34;;;;;;;16.40;14.80;;;9.10;99.90;;;;;;5075693;28;20487;-71
2021/05/13 04:24:00;;;;;;;16.80;15.13;;;9.10;99.90;;;;;;5075879;28;20183;-71
2021/05/13 04:26:25;;;;;;;15.67;14.00;;;9.10;99.90;;;;;;5075993;28;20161;-71
2021/05/13 04:28:51;;;;;;;16.27;14.67;;;9.10;99.90;;;;;;5075436;28;20154;-71
2021/05/13 04:31:17;;;;;;;15.23;13.83;;;9.10;99.90;;;;;;5075646;28;20173;-72
2021/05/13 04:33:42;;;;;;;16.90;15.30;;;9.10;99.90;;;;;;5075635;28;20177;-71
2021/05/13 04:36:08;;;;;;;17.50;15.80;;;9.10;99.90;;;;;;5075395;28;20388;-71
2021/05/13 04:38:34;;;;;;;17.57;15.97;;;9.10;99.90;;;;;;5075511;28;20161;-72
2021/05/13 04:41:00;;;;;;;16.10;14.60;;;9.10;99.90;;;;;;5075285;28;20805;-71
2021/05/13 04:43:35;;;;;;;15.17;13.87;;;9.20;99.90;;;;;;5075308;28;20155;-71
2021/05/13 04:46:01;;;;;;;15.77;14.17;;;9.20;99.90;;;;;;5075151;28;20383;-71
2021/05/13 04:48:28;;;;;;;15.87;14.47;;;9.20;99.90;;;;;;5075050;28;20421;-71
2021/05/13 04:50:54;;;;;;;17.60;14.90;;;9.20;99.90;;;;;;5076222;28;20419;-71
2021/05/13 04:53:20;;;;;;;17.47;15.67;;;9.20;99.90;;;;;;5075453;28;20889;-72
2021/05/13 04:55:45;;;;;;;18.40;16.13;;;9.20;99.90;;;;;;5075385;28;20399;-71
2021/05/13 04:58:11;;;;;;;18.03;14.47;;;9.30;99.90;;;;;;5074904;28;20170;-71
2021/05/13 05:00:37;;;;;;;18.20;16.13;;;9.30;99.90;;;;;;5074811;28;20157;-71
2021/05/13 05:03:05;;;;;;;17.87;16.27;;;9.30;99.90;;;;;;5074854;28;20393;-71
2021/05/13 05:05:31;;;;;;;17.10;15.37;;;9.30;99.90;;;;;;5076354;28;20520;-71
2021/05/13 05:07:57;;;;;;;18.23;16.40;;;9.40;99.90;;;;;;5076201;28;20412;-71
2021/05/13 05:10:22;;;;;;;16.63;15.07;;;9.40;99.90;;;;;;5075146;28;20326;-71
2021/05/13 05:12:48;;;;;;;17.63;15.87;;;9.40;99.90;;;;;;5074762;28;20163;-71
2021/05/13 05:15:14;;;;;;;17.87;16.30;;;9.50;99.90;;;;;;5074619;28;20542;-71
2021/05/13 05:17:40;;;;;;;17.37;15.83;;;9.50;99.90;;;;;;5074445;28;20193;-71
2021/05/13 05:20:06;;;;;;;18.90;16.97;;;9.60;99.90;;;;;;5077465;28;20173;-71
2021/05/13 05:22:32;;;;;;;18.23;16.43;;;9.60;99.90;;;;;;5075342;28;20535;-71
2021/05/13 05:24:58;;;;;;;17.17;15.63;;;9.70;99.90;;;;;;5073838;28;20419;-71
2021/05/13 05:27:23;;;;;;;16.70;15.13;;;9.80;99.90;;;;;;5074230;28;20393;-71
2021/05/13 05:29:49;;;;;;;17.40;15.83;;;9.80;99.90;;;;;;5074567;28;20171;-71
2021/05/13 05:32:15;;;;;;;17.13;15.33;;;9.90;99.90;;;;;;5074202;28;20521;-71
2021/05/13 05:34:40;;;;;;;17.23;15.67;;;10.00;99.90;;;;;;5074920;28;20530;-71
2021/05/13 05:37:06;;;;;;;16.67;15.17;;;10.10;99.90;;;;;;5074779;28;20218;-71
2021/05/13 05:39:32;;;;;;;16.00;14.67;;;10.10;99.90;;;;;;5074458;28;20245;-71
2021/05/13 05:41:57;;;;;;;15.80;14.23;;;10.20;99.90;;;;;;5074633;28;20198;-71
2021/05/13 05:44:24;;;;;;;15.17;13.87;;;10.20;99.90;;;;;;5074154;28;20159;-71
2021/05/13 05:46:50;;;;;;;16.17;14.77;;;10.20;99.90;;;;;;5074062;28;20151;-71
2021/05/13 05:49:17;;;;;;;15.20;13.80;;;10.30;99.90;;;;;;5076551;28;20462;-71
2021/05/13 05:51:42;;;;;;;16.00;14.70;;;10.30;99.90;;;;;;5075051;28;20401;-71
2021/05/13 05:54:08;;;;;;;15.03;13.70;;;10.40;99.90;;;;;;5074061;28;20755;-71
2021/05/13 05:56:34;;;;;;;14.97;13.50;;;10.40;99.90;;;;;;5073718;28;20160;-71
2021/05/13 05:59:00;;;;;;;14.27;12.90;;;10.50;99.90;;;;;;5074617;28;20571;-71
2021/05/13 06:01:26;;;;;;;15.40;14.00;;;10.50;99.90;;;;;;5073582;28;20199;-71
2021/05/13 06:03:52;;;;;;;13.63;12.43;;;10.60;99.90;;;;;;5073655;28;20463;-71
2021/05/13 06:06:19;;;;;;;15.87;14.57;;;10.60;99.90;;;;;;5074553;28;20155;-71
2021/05/13 06:08:45;;;;;;;16.10;14.60;;;10.70;99.90;;;;;;5073745;28;20151;-71
2021/05/13 06:11:10;;;;;;;14.13;12.90;;;10.70;99.90;;;;;;5073598;28;20488;-71
2021/05/13 06:13:36;;;;;;;14.60;13.30;;;10.80;99.90;;;;;;5073326;28;20489;-71
2021/05/13 06:16:01;;;;;;;14.90;12.87;;;10.90;99.90;;;;;;5077890;28;20312;-71
2021/05/13 06:18:27;;;;;;;13.70;12.60;;;11.00;99.90;;;;;;5093915;28;20163;-71
2021/05/13 06:20:52;;;;;;;14.10;12.63;;;11.10;99.90;;;;;;5094783;28;20613;-71
2021/05/13 06:23:18;;;;;;;13.90;12.70;;;11.20;99.90;;;;;;5093628;28;20147;-71
2021/05/13 06:25:44;;;;;;;13.13;11.83;;;11.30;99.90;;;;;;5093732;28;20159;-71
2021/05/13 06:28:09;;;;;;;14.53;13.23;;;11.40;99.90;;;;;;5093419;28;20642;-72
2021/05/13 06:30:35;;;;;;;14.00;12.80;;;11.40;99.90;;;;;;5093696;28;20611;-72
2021/05/13 06:33:01;;;;;;;13.77;11.97;;;11.50;99.90;;;;;;5092719;28;20178;-71
2021/05/13 06:35:26;;;;;;;13.20;12.10;;;11.60;99.90;;;;;;5094526;28;20746;-71
2021/05/13 06:37:52;;;;;;;14.37;12.47;;;11.70;99.90;;;;;;5093443;28;20518;-71
2021/05/13 06:40:18;;;;;;;12.80;11.60;;;11.80;99.90;;;;;;5093554;28;20170;-71
2021/05/13 06:42:45;;;;;;;12.67;11.47;;;12.00;99.90;;;;;;5093250;28;20182;-71
2021/05/13 06:45:13;;;;;;;11.37;10.27;;;12.20;99.90;;;;;;5093324;28;20468;-71
2021/05/13 06:47:39;;;;;;;10.27;9.37;;;12.30;99.90;;;;;;5093638;28;20866;-71
2021/05/13 06:50:06;;;;;;;11.03;10.13;;;12.50;99.90;;;;;;5093527;28;20436;-71
2021/05/13 06:52:31;;;;;;;12.40;11.30;;;12.70;99.90;;;;;;5093191;28;20446;-71
2021/05/13 06:54:57;;;;;;;11.23;10.13;;;12.90;99.90;;;;;;5093420;28;20392;-71
2021/05/13 06:57:23;;;;;;;8.80;7.90;;;13.00;99.90;;;;;;5093128;28;20246;-71
2021/05/13 06:59:48;;;;;;;9.73;8.27;;;13.20;99.90;;;;;;5093155;28;20191;-71
2021/05/13 07:02:14;;;;;;;7.73;7.03;;;13.30;99.90;;;;;;5092812;28;20607;-71
2021/05/13 07:04:40;;;;;;;8.70;7.87;;;13.40;99.90;;;;;;5094220;28;20264;-71
2021/05/13 07:07:05;;;;;;;7.70;5.73;;;13.50;99.90;;;;;;5092209;28;20167;-71
2021/05/13 07:09:31;;;;;;;6.20;5.60;;;13.60;99.90;;;;;;5092984;28;20151;-71
2021/05/13 07:11:57;;;;;;;4.63;4.23;;;13.70;99.90;;;;;;5092997;28;20163;-71
2021/05/13 07:14:23;;;;;;;5.37;4.60;;;13.90;99.90;;;;;;5093274;28;20643;-71
2021/05/13 07:16:49;;;;;;;4.87;4.17;;;14.00;99.90;;;;;;5073401;28;20210;-71
2021/05/13 07:19:15;;;;;;;4.77;4.27;;;14.20;99.90;;;;;;5073789;28;20401;-72
2021/05/13 07:21:41;;;;;;;4.30;3.90;;;14.30;99.90;;;;;;5072745;28;20529;-72
2021/05/13 07:24:07;;;;;;;3.63;3.13;;;14.50;99.90;;;;;;5073235;28;20509;-72
2021/05/13 07:26:33;;;;;;;5.30;3.07;;;14.60;99.90;;;;;;5072760;28;20152;-72
2021/05/13 07:28:59;;;;;;;4.07;3.50;;;14.90;99.90;;;;;;5072518;28;20420;-72
2021/05/13 07:31:24;;;;;;;4.73;3.03;;;15.30;99.90;;;;;;5072724;28;20163;-72
2021/05/13 07:33:51;;;;;;;5.20;3.50;;;16.20;99.90;;;;;;5073714;28;20167;-72
2021/05/13 07:36:16;;;;;;;4.17;3.80;;;17.50;99.90;;;;;;5072314;28;20211;-72
2021/05/13 07:38:42;;;;;;;6.73;3.77;;;19.20;99.20;;;;;;5072537;28;20417;-72
2021/05/13 07:41:08;;;;;;;6.30;3.53;;;20.70;91.60;;;;;;5073125;28;20248;-72
2021/05/13 07:43:35;;;;;;;5.97;3.20;;;22.00;81.00;;;;;;5072551;28;20153;-72
2021/05/13 07:46:02;;;;;;;5.53;3.40;;;23.20;69.00;;;;;;5072594;28;20148;-72
2021/05/13 07:48:29;;;;;;;4.90;2.67;;;24.30;59.70;;;;;;5074417;28;20413;-71
2021/05/13 07:50:55;;;;;;;3.20;2.90;;;25.20;56.50;;;;;;5076131;28;20393;-71
2021/05/13 07:53:21;;;;;;;5.50;3.50;;;25.90;52.50;;;;;;5076188;28;20390;-71
2021/05/13 07:55:46;;;;;;;4.37;2.97;;;26.60;48.50;;;;;;5076138;28;20852;-71
2021/05/13 07:58:12;;;;;;;3.37;3.07;;;27.10;48.50;;;;;;5076406;28;20187;-71
2021/05/13 08:00:39;;;;;;;3.10;2.63;;;27.70;45.90;;;;;;5075927;28;20159;-71
2021/05/13 08:03:05;;;;;;;3.40;2.60;;;28.20;44.60;;;;;;5076767;28;20183;-71
2021/05/13 08:05:30;;;;;;;3.23;2.83;;;28.60;43.80;;;;;;5076110;28;20397;-72
2021/05/13 08:07:56;;;;;;;3.10;2.60;;;28.80;43.20;;;;;;5075819;28;20164;-71
2021/05/13 08:10:22;;;;;;;4.37;2.97;;;29.00;42.50;;;;;;5076053;28;20160;-72
2021/05/13 08:12:47;;;;;;;3.70;2.73;;;29.20;42.50;;;;;;5076208;28;20166;-72
2021/05/13 08:15:14;;;;;;;3.50;2.77;;;29.30;42.20;;;;;;5083195;28;20216;-72
2021/05/13 08:17:41;;;;;;;4.30;3.90;;;29.80;41.00;;;;;;5100850;28;20269;-72
2021/05/13 08:20:09;;;;;;;4.23;3.30;;;30.40;39.40;;;;;;5100792;28;20450;-72
2021/05/13 08:22:35;;;;;;;3.70;2.57;;;31.10;37.30;;;;;;5102360;28;20477;-72
2021/05/13 08:25:03;;;;;;;4.40;3.10;;;31.90;36.60;;;;;;5098202;28;20908;-72
2021/05/13 08:27:30;;;;;;;4.33;2.40;;;32.70;35.10;;;;;;5096638;28;20166;-72
2021/05/13 08:29:57;;;;;;;5.23;3.17;;;33.20;33.80;;;;;;5096815;28;20385;-72
2021/05/13 08:32:22;;;;;;;7.80;4.10;;;33.90;32.70;;;;;;5089119;28;20973;-73
2021/05/13 08:34:48;;;;;;;3.93;3.50;;;34.40;30.80;;;;;;5075350;28;20449;-73
2021/05/13 08:37:13;;;;;;;3.40;2.90;;;34.70;30.50;;;;;;5075512;28;20241;-73
2021/05/13 08:39:39;;;;;;;3.27;2.97;;;35.40;29.80;;;;;;5075258;28;20577;-73
2021/05/13 08:42:05;;;;;;;4.13;2.40;;;35.90;28.60;;;;;;5075328;28;20620;-73
2021/05/13 08:44:30;;;;;;;3.27;2.77;;;35.60;27.70;;;;;;5075632;28;20162;-73
2021/05/13 08:46:57;;;;;;;4.20;2.90;;;34.40;28.70;;;;;;5076234;28;20156;-73
2021/05/13 08:49:25;;;;;;;2.93;2.73;;;32.70;30.40;;;;;;5076905;28;20194;-73
2021/05/13 08:51:51;;;;;;;3.70;3.20;;;30.80;33.30;;;;;;5075708;28;20456;-73
2021/05/13 08:54:18;;;;;;;3.17;2.87;;;29.10;35.80;;;;;;5074894;28;20410;-73
2021/05/13 08:56:43;;;;;;;6.13;4.00;;;27.50;38.30;;;;;;5075078;28;20734;-72
2021/05/13 08:59:09;;;;;;;3.67;2.63;;;26.40;41.10;;;;;;5075898;28;20418;-72
2021/05/13 09:01:37;;;;;;;4.77;2.70;;;26.40;41.50;;;;;;5075342;28;20202;-72
2021/05/13 09:04:03;;;;;;;4.60;2.60;;;27.00;39.60;;;;;;5074800;28;20558;-72
2021/05/13 09:09:11;;;;;;;4.10;2.40;;;26.70;38.70;;;;;;5090760;28;20499;-73
2021/05/13 09:11:56;;;;;;;4.07;2.50;;;25.90;40.10;;;;;;5090575;28;20385;-73
2021/05/13 09:14:28;;;;;;;3.00;2.10;;;25.10;40.90;;;;;;5092086;28;20376;-73
2021/05/13 09:16:54;;;;;;;4.33;2.80;;;24.80;41.30;;;;;;5070356;28;20424;-74
2021/05/13 09:30:17;;;;;;;2.47;2.27;;;27.30;40.20;;;;;;5111503;27;20505;-73
2021/05/13 09:32:47;;;;;;;3.73;2.30;;;27.50;39.40;;;;;;5111036;28;20414;-73
2021/05/13 09:35:18;;;;;;;3.80;2.00;;;27.80;39.80;;;;;;5110704;28;20775;-73
2021/05/13 09:37:48;;;;;;;3.53;2.40;;;28.00;38.40;;;;;;5111014;28;20381;-73
2021/05/13 09:40:19;;;;;;;4.07;1.90;;;28.20;38.00;;;;;;5104726;28;20412;-73
2021/05/13 09:42:44;;;;;;;1.87;1.77;;;28.30;37.80;;;;;;5090709;28;20401;-73
2021/05/13 09:45:10;;;;;;;4.87;2.10;;;28.30;36.80;;;;;;5090618;28;20384;-73
2021/05/13 09:47:37;;;;;;;2.77;2.20;;;28.30;37.70;;;;;;5090359;28;20163;-73
2021/05/13 09:52:48;;;;;;;2.27;2.07;;;28.00;38.40;;;;;;5046894;28;21076;-72
2021/05/13 09:55:17;;;;;;;2.60;2.20;;;27.80;40.80;;;;;;5047016;28;20474;-72
2021/05/13 09:57:50;;;;;;;2.40;1.80;;;27.60;38.70;;;;;;5038314;28;20421;-72
2021/05/13 10:00:33;;;;;;;3.23;1.80;;;27.40;38.60;;;;;;5027132;28;20423;-72
2021/05/13 10:02:59;;;;;;;3.53;1.80;;;27.10;38.90;;;;;;5027212;28;20782;-72
2021/05/13 10:05:25;;;;;;;3.30;2.10;;;26.70;39.70;;;;;;5026914;28;20384;-71
2021/05/13 10:07:51;;;;;;;3.00;2.10;;;26.60;39.90;;;;;;5026841;28;20384;-72
2021/05/13 10:10:17;;;;;;;5.87;1.67;;;26.40;41.40;;;;;;5027034;28;20834;-72
2021/05/13 10:12:44;;;;;;;2.30;1.73;;;26.20;40.50;;;;;;5028315;28;20432;-72
2021/05/13 10:15:10;;;;;;;4.37;2.40;;;26.20;40.00;;;;;;5027520;28;20173;-72
2021/05/13 10:17:40;;;;;;;1.87;1.33;;;26.10;40.00;;;;;;5026817;28;20877;-72
2021/05/13 10:20:07;;;;;;;5.00;2.67;;;25.90;39.60;;;;;;5027127;28;20396;-72
2021/05/13 10:22:36;;;;;;;4.30;2.67;;;25.60;39.10;;;;;;5026908;28;20402;-71
2021/05/13 10:25:36;;;;;;;3.93;1.80;;;25.10;41.60;;;;;;5027052;28;20511;-71
2021/05/13 10:28:03;;;;;;;2.73;1.83;;;24.90;42.20;;;;;;5027168;28;20794;-71
2021/05/13 10:30:32;;;;;;;4.33;1.53;;;24.70;42.00;;;;;;5026450;28;20461;-71
2021/05/13 10:33:21;;;;;;;2.50;1.83;;;24.50;43.90;;;;;;5046235;28;20403;-71
2021/05/13 10:36:08;;;;;;;5.30;2.07;;;24.30;42.70;;;;;;5046433;28;20410;-71
2021/05/13 10:38:41;;;;;;;3.33;1.73;;;24.00;41.00;;;;;;5045563;28;20880;-71
2021/05/13 10:46:53;;;;;;;6.10;2.27;;;23.40;45.20;;;;;;5110836;27;20517;-73
2021/05/13 10:49:21;;;;;;;4.27;1.70;;;22.90;44.50;;;;;;5095927;28;20413;-72
2021/05/13 10:51:49;;;;;;;4.03;2.20;;;22.60;46.50;;;;;;5090523;28;20389;-73
2021/05/13 11:05:39;;;;;;;3.40;1.97;;;22.20;47.00;;;;;;5124864;27;20514;-72
2021/05/13 11:13:43;;;;;;;2.90;1.70;;;22.20;45.40;;;;;;5131477;27;20534;-72
2021/05/13 11:16:48;;;;;;;4.13;2.00;;;21.90;46.50;;;;;;5131260;28;20398;-72
2021/05/13 11:19:17;;;;;;;2.83;1.67;;;21.80;45.70;;;;;;5130624;28;20400;-72
2021/05/13 11:22:04;;;;;;;6.63;1.80;;;21.60;45.30;;;;;;5130697;28;20413;-72
2021/05/13 11:24:36;;;;;;;3.80;2.20;;;21.40;45.80;;;;;;5131251;28;20388;-72
2021/05/13 11:27:06;;;;;;;2.73;1.70;;;21.30;46.50;;;;;;5131329;28;20436;-72
2021/05/13 11:29:50;;;;;;;2.33;1.97;;;21.10;46.80;;;;;;5131106;28;20387;-72
2021/05/13 11:32:19;;;;;;;5.00;2.13;;;21.00;47.70;;;;;;5130971;28;20496;-72
2021/05/13 11:34:45;;;;;;;3.17;1.93;;;20.80;47.40;;;;;;5131196;28;20437;-71
2021/05/13 11:40:27;;;;;;;2.80;1.97;;;20.50;47.80;;;;;;5078220;28;20578;-72
2021/05/13 11:43:15;;;;;;;3.67;2.10;;;20.40;47.70;;;;;;5070375;28;20397;-72
2021/05/13 11:45:41;;;;;;;2.00;1.70;;;20.30;47.90;;;;;;5070361;28;20386;-72
2021/05/13 11:48:28;;;;;;;3.60;2.20;;;20.20;48.20;;;;;;5070228;28;20416;-72
2021/05/13 11:50:56;;;;;;;2.87;1.60;;;20.20;48.60;;;;;;5069408;28;20402;-72
2021/05/13 11:53:23;;;;;;;2.10;1.60;;;20.20;48.40;;;;;;5071642;28;20417;-72
2021/05/13 11:55:49;;;;;;;4.60;1.60;;;20.30;48.10;;;;;;5069846;28;20416;-72
2021/05/13 11:58:34;;;;;;;2.43;1.40;;;20.50;49.00;;;;;;5070136;28;20958;-72
2021/05/13 12:01:13;;;;;;;2.27;1.67;;;20.80;47.30;;;;;;5070209;28;20238;-72
2021/05/13 12:03:38;;;;;;;2.50;1.90;;;20.90;46.00;;;;;;5070072;28;20416;-72
2021/05/13 12:06:04;;;;;;;6.00;1.80;;;21.00;45.60;;;;;;5070385;28;20493;-72
2021/05/13 12:08:29;;;;;;;1.80;1.70;;;21.00;45.30;;;;;;5071131;28;20159;-72
2021/05/13 12:10:55;;;;;;;2.73;1.50;;;21.00;45.10;;;;;;5069757;28;20183;-72
2021/05/13 12:13:26;;;;;;;3.97;1.73;;;20.90;45.00;;;;;;5069564;28;20190;-72
2021/05/13 12:16:07;;;;;;;4.03;1.33;;;21.00;45.00;;;;;;5069637;28;20715;-72
2021/05/13 12:18:34;;;;;;;3.73;2.30;;;21.00;44.20;;;;;;5069742;28;20445;-72
2021/05/13 12:21:01;;;;;;;3.17;2.10;;;21.10;45.00;;;;;;5070353;28;20444;-72
2021/05/13 12:23:27;;;;;;;6.30;1.90;;;21.10;45.20;;;;;;5070637;28;20471;-72
2021/05/13 12:25:52;;;;;;;2.40;1.57;;;21.10;45.10;;;;;;5069593;28;20402;-72
2021/05/13 12:28:19;;;;;;;2.60;2.33;;;21.00;45.00;;;;;;5069543;28;20473;-72
2021/05/13 12:30:53;;;;;;;4.30;1.70;;;21.00;44.50;;;;;;5069188;28;20183;-72
2021/05/13 12:35:58;;;;;;;3.13;1.73;;;20.90;44.50;;;;;;5091263;28;20503;-71
2021/05/13 12:38:25;;;;;;;3.27;1.50;;;20.80;44.40;;;;;;5091041;28;20785;-71
2021/05/13 12:41:08;;;;;;;4.20;1.67;;;20.80;44.20;;;;;;5090504;28;20181;-71
2021/05/13 12:43:34;;;;;;;1.80;1.70;;;20.80;44.30;;;;;;5090446;28;20385;-71
2021/05/13 12:45:59;;;;;;;2.07;1.40;;;20.70;44.00;;;;;;5090397;28;20473;-73
2021/05/13 12:48:27;;;;;;;3.80;1.80;;;20.50;44.40;;;;;;5074693;28;20175;-71
2021/05/13 12:50:56;;;;;;;2.43;1.50;;;20.50;46.00;;;;;;5070930;28;20552;-71
2021/05/13 12:53:22;;;;;;;2.63;1.30;;;20.50;45.10;;;;;;5070225;28;20469;-71
2021/05/13 12:55:48;;;;;;;3.27;1.50;;;20.50;45.00;;;;;;5069954;28;20446;-71
2021/05/13 12:58:16;;;;;;;2.73;1.60;;;20.40;44.20;;;;;;5070059;28;20890;-71
2021/05/13 13:00:44;;;;;;;2.17;1.50;;;20.40;44.80;;;;;;5069911;28;20521;-71
2021/05/13 13:03:14;;;;;;;2.60;1.50;;;20.30;44.40;;;;;;5071268;28;20476;-70
2021/05/13 13:05:41;;;;;;;1.77;1.33;;;20.30;44.80;;;;;;5071484;28;20432;-71
2021/05/13 13:08:06;;;;;;;3.00;1.50;;;20.30;44.90;;;;;;5069753;28;20734;-71
2021/05/13 13:15:52;;;;;;;3.63;1.37;;;20.40;45.10;;;;;;5111703;27;20619;-71
2021/05/13 13:18:20;;;;;;;1.93;1.40;;;20.70;44.20;;;;;;5111230;28;20743;-71
2021/05/13 13:20:46;;;;;;;7.07;5.53;;;20.70;43.90;;;;;;5108039;28;20842;-72
2021/05/13 13:23:32;;;;;;;4.03;1.60;;;20.70;44.30;;;;;;5090361;28;20472;-72
2021/05/13 13:26:03;;;;;;;3.40;2.10;;;20.60;44.10;;;;;;5090391;28;20155;-71
2021/05/13 13:28:29;;;;;;;2.40;1.73;;;20.50;44.80;;;;;;5090368;28;20712;-71
2021/05/13 13:31:00;;;;;;;3.43;1.80;;;20.40;44.50;;;;;;5092003;28;20408;-71
2021/05/13 13:33:27;;;;;;;3.83;1.80;;;20.30;44.50;;;;;;5090732;28;20385;-71
2021/05/13 13:35:54;;;;;;;2.77;1.30;;;20.10;44.80;;;;;;5090591;28;20922;-71
2021/05/13 13:38:22;;;;;;;3.50;1.67;;;20.10;45.10;;;;;;5089160;28;20429;-71
2021/05/13 13:40:50;;;;;;;3.10;1.90;;;20.10;45.40;;;;;;5090113;28;20472;-71
2021/05/13 13:43:16;;;;;;;2.20;1.20;;;20.10;45.60;;;;;;5090073;28;20439;-71